Time;durP1;ratioP1;P1;durP2;ratioP2;P2;SDS_P1;SDS_P2;PMS_P1;PMS_P2;Temp;Humidity;BMP_temperature;BMP_pressure;BME280_temperature;BME280_humidity;BME280_pressure;Samples;Min_cycle;Max_cycle;Signal;HPM_P1;HPM_P2
2020/12/22 00:00:05;;;;;;;224.47;83.97;;;0.20;98.90;;;;;;4847420;28;20640;-75
2020/12/22 00:02:29;;;;;;;115.50;56.73;;;0.10;99.90;;;;;;4841505;28;20225;-74
2020/12/22 00:04:51;;;;;;;162.10;64.83;;;0.20;99.90;;;;;;4848244;28;21078;-74
2020/12/22 00:07:15;;;;;;;220.57;77.43;;;0.30;99.90;;;;;;4850144;28;20678;-75
2020/12/22 00:09:37;;;;;;;463.60;107.37;;;0.30;99.90;;;;;;4839104;28;20706;-74
2020/12/22 00:11:59;;;;;;;607.30;111.20;;;0.20;99.90;;;;;;4845146;28;20665;-75
2020/12/22 00:14:21;;;;;;;564.70;111.27;;;0.30;99.90;;;;;;4845118;28;20686;-75
2020/12/22 00:16:44;;;;;;;672.73;126.67;;;0.70;99.90;;;;;;4847968;28;20643;-75
2020/12/22 00:19:06;;;;;;;633.50;123.77;;;0.30;99.90;;;;;;4848481;28;20741;-74
2020/12/22 00:21:36;;;;;;;525.47;112.20;;;0.50;99.90;;;;;;4836805;28;21120;-75
2020/12/22 00:23:58;;;;;;;510.13;109.23;;;0.50;99.90;;;;;;4843676;28;20215;-75
2020/12/22 00:26:20;;;;;;;526.83;104.37;;;0.60;99.90;;;;;;4842595;28;20603;-75
2020/12/22 00:28:42;;;;;;;534.87;101.27;;;0.60;99.90;;;;;;4852348;28;20636;-74
2020/12/22 00:31:05;;;;;;;528.77;98.67;;;0.50;99.90;;;;;;4847905;28;20603;-75
2020/12/22 00:33:27;;;;;;;508.53;101.00;;;0.60;99.90;;;;;;4849596;28;20658;-75
2020/12/22 00:35:50;;;;;;;480.50;92.97;;;0.50;99.90;;;;;;4849164;28;20198;-75
2020/12/22 00:38:12;;;;;;;512.93;93.77;;;0.50;99.90;;;;;;4848818;28;21026;-74
2020/12/22 00:40:34;;;;;;;382.57;84.93;;;0.50;99.90;;;;;;4848384;28;20670;-75
2020/12/22 00:43:00;;;;;;;354.87;87.07;;;0.50;99.90;;;;;;4838986;28;20549;-75
2020/12/22 00:45:23;;;;;;;418.37;99.53;;;0.50;99.90;;;;;;4847697;28;20195;-75
2020/12/22 00:47:45;;;;;;;472.33;96.97;;;0.50;99.90;;;;;;4844141;28;20683;-74
2020/12/22 00:50:07;;;;;;;389.27;94.03;;;0.60;99.90;;;;;;4848905;28;21034;-75
2020/12/22 00:52:30;;;;;;;351.67;85.07;;;0.60;99.90;;;;;;4853018;28;20199;-75
2020/12/22 00:54:52;;;;;;;280.70;80.43;;;0.40;99.90;;;;;;4854311;28;20959;-75
2020/12/22 00:57:16;;;;;;;282.03;78.63;;;0.50;99.90;;;;;;4850841;28;20631;-75
2020/12/22 00:59:52;;;;;;;382.13;87.67;;;0.20;99.90;;;;;;4841659;28;20710;-75
2020/12/22 01:02:14;;;;;;;349.60;82.80;;;0.20;99.90;;;;;;4845262;28;20289;-75
2020/12/22 01:04:36;;;;;;;380.40;89.87;;;0.30;99.90;;;;;;4849582;28;20611;-75
2020/12/22 01:06:58;;;;;;;274.27;80.00;;;0.40;99.90;;;;;;4849020;28;20657;-75
2020/12/22 01:09:21;;;;;;;256.30;80.27;;;0.00;99.90;;;;;;4843467;28;21070;-75
2020/12/22 01:11:43;;;;;;;244.40;78.43;;;0.00;99.90;;;;;;4851454;28;20626;-75
2020/12/22 01:14:05;;;;;;;234.37;75.80;;;0.10;99.90;;;;;;4851330;28;20615;-75
2020/12/22 01:16:28;;;;;;;300.57;82.63;;;-0.10;99.90;;;;;;4843715;28;20678;-75
2020/12/22 01:18:50;;;;;;;277.30;77.03;;;0.40;99.90;;;;;;4844397;28;21086;-75
2020/12/22 01:21:18;;;;;;;246.43;78.97;;;-0.20;99.90;;;;;;4848387;28;21045;-75
2020/12/22 01:23:42;;;;;;;254.10;80.63;;;-0.30;99.90;;;;;;4852803;28;21207;-76
2020/12/22 01:26:05;;;;;;;309.23;78.10;;;-0.30;99.90;;;;;;4846786;28;21281;-74
2020/12/22 01:28:29;;;;;;;297.40;80.07;;;-0.30;99.90;;;;;;4838219;28;20674;-75
2020/12/22 01:30:51;;;;;;;298.53;81.87;;;-0.30;99.90;;;;;;4852910;28;20662;-75
2020/12/22 01:33:13;;;;;;;202.00;74.67;;;-0.30;99.90;;;;;;4847249;28;20604;-76
2020/12/22 01:35:35;;;;;;;230.67;74.47;;;-0.40;99.90;;;;;;4847818;28;21028;-76
2020/12/22 01:37:57;;;;;;;466.63;94.03;;;-0.40;99.90;;;;;;4846530;28;20600;-77
2020/12/22 01:40:20;;;;;;;251.47;79.70;;;-0.30;99.90;;;;;;4842013;28;20187;-77
2020/12/22 01:42:46;;;;;;;256.20;75.57;;;-0.40;99.90;;;;;;4845188;28;20620;-77
2020/12/22 01:45:08;;;;;;;230.63;68.23;;;-0.40;99.90;;;;;;4852982;28;20619;-76
2020/12/22 01:47:30;;;;;;;227.47;69.93;;;-0.40;99.90;;;;;;4848057;28;20611;-76
2020/12/22 01:49:52;;;;;;;245.33;71.73;;;-0.40;99.90;;;;;;4847245;28;20734;-77
2020/12/22 01:52:14;;;;;;;190.70;64.93;;;-0.40;99.90;;;;;;4850823;28;20670;-76
2020/12/22 01:54:36;;;;;;;188.03;63.17;;;-0.50;99.90;;;;;;4847123;28;20624;-77
2020/12/22 01:56:59;;;;;;;185.23;60.47;;;-0.50;99.90;;;;;;4848988;28;20659;-77
2020/12/22 01:59:22;;;;;;;139.10;58.23;;;0.30;99.90;;;;;;4846549;28;20616;-77
2020/12/22 02:01:44;;;;;;;104.23;53.07;;;-0.50;99.90;;;;;;4836026;28;21185;-77
2020/12/22 02:04:09;;;;;;;102.63;52.37;;;-0.50;99.90;;;;;;4841872;28;20658;-76
2020/12/22 02:06:31;;;;;;;88.43;50.20;;;-0.50;99.90;;;;;;4846113;28;20623;-76
2020/12/22 02:08:54;;;;;;;112.30;54.73;;;-0.50;99.90;;;;;;4843394;28;20672;-77
2020/12/22 02:11:23;;;;;;;103.03;52.13;;;0.20;99.90;;;;;;4841456;28;20617;-77
2020/12/22 02:13:45;;;;;;;105.43;50.23;;;-0.20;99.90;;;;;;4835575;28;21042;-77
2020/12/22 02:16:07;;;;;;;135.83;54.43;;;-0.40;99.90;;;;;;4840621;28;20647;-77
2020/12/22 02:18:30;;;;;;;123.60;56.43;;;-0.30;99.90;;;;;;4851548;28;20646;-77
2020/12/22 02:20:52;;;;;;;166.17;54.97;;;0.00;99.90;;;;;;4844540;28;21673;-77
2020/12/22 02:23:15;;;;;;;149.30;56.93;;;-0.20;99.90;;;;;;4844347;28;20690;-77
2020/12/22 02:25:45;;;;;;;124.87;56.43;;;0.70;99.90;;;;;;4847755;28;20651;-76
2020/12/22 02:28:07;;;;;;;113.80;53.83;;;-0.30;99.90;;;;;;4850796;28;20983;-77
2020/12/22 02:30:29;;;;;;;166.20;60.97;;;-0.30;99.90;;;;;;4841240;28;20698;-77
2020/12/22 02:32:51;;;;;;;174.93;62.03;;;-0.10;99.90;;;;;;4845546;28;20701;-76
2020/12/22 02:35:13;;;;;;;122.30;56.10;;;-0.30;99.90;;;;;;4848729;28;20624;-77
2020/12/22 02:37:35;;;;;;;141.73;56.83;;;-0.20;99.90;;;;;;4881161;28;20606;-76
2020/12/22 02:39:58;;;;;;;144.47;57.50;;;-0.20;99.90;;;;;;4845828;28;20623;-77
2020/12/22 02:42:20;;;;;;;173.40;58.53;;;-0.20;99.90;;;;;;4846681;28;20608;-77
2020/12/22 02:44:42;;;;;;;140.03;57.87;;;-0.10;99.90;;;;;;4846716;28;20675;-77
2020/12/22 02:47:11;;;;;;;133.30;55.00;;;-0.10;99.90;;;;;;4840919;28;20612;-77
2020/12/22 02:49:33;;;;;;;168.37;55.27;;;-0.10;99.90;;;;;;4834816;28;20660;-76
2020/12/22 02:51:58;;;;;;;133.73;51.80;;;0.00;99.90;;;;;;4847594;28;20186;-77
2020/12/22 02:54:20;;;;;;;175.93;53.07;;;0.10;99.90;;;;;;4844224;28;20608;-76
2020/12/22 02:56:45;;;;;;;193.53;53.77;;;0.00;99.90;;;;;;4852571;28;20607;-77
2020/12/22 02:59:07;;;;;;;184.27;52.80;;;0.20;99.90;;;;;;4852530;28;20689;-76
2020/12/22 03:01:29;;;;;;;191.60;56.53;;;0.10;99.90;;;;;;4838118;28;20713;-77
2020/12/22 03:03:51;;;;;;;184.63;54.47;;;0.10;99.90;;;;;;4845481;28;20639;-77
2020/12/22 03:06:13;;;;;;;157.60;51.67;;;0.10;99.90;;;;;;4838607;28;20978;-77
2020/12/22 03:08:35;;;;;;;148.20;50.13;;;0.30;99.90;;;;;;4844057;28;20665;-76
2020/12/22 03:10:57;;;;;;;149.07;51.93;;;0.10;99.90;;;;;;4844511;28;20713;-76
2020/12/22 03:13:20;;;;;;;108.83;47.10;;;0.30;99.90;;;;;;4848452;28;20617;-77
2020/12/22 03:15:42;;;;;;;102.77;48.27;;;0.20;99.90;;;;;;4839791;28;20604;-76
2020/12/22 03:18:05;;;;;;;112.37;48.67;;;0.20;99.90;;;;;;4844182;28;20677;-76
2020/12/22 03:20:27;;;;;;;156.63;52.83;;;0.30;99.90;;;;;;4846011;28;20615;-77
2020/12/22 03:22:49;;;;;;;125.73;52.07;;;0.20;99.90;;;;;;4847428;28;20264;-76
2020/12/22 03:25:12;;;;;;;124.00;51.27;;;0.40;99.90;;;;;;4847426;28;20683;-76
2020/12/22 03:27:34;;;;;;;117.77;52.17;;;0.40;99.90;;;;;;4853486;28;20637;-77
2020/12/22 03:29:57;;;;;;;114.20;52.87;;;0.20;99.90;;;;;;4847324;28;20690;-76
2020/12/22 03:32:19;;;;;;;117.50;49.23;;;0.20;99.90;;;;;;4847286;28;20620;-76
2020/12/22 03:34:41;;;;;;;118.10;48.97;;;0.30;99.90;;;;;;4848576;28;21211;-76
2020/12/22 03:37:06;;;;;;;119.10;51.53;;;0.20;99.90;;;;;;4839028;28;20604;-77
2020/12/22 03:39:28;;;;;;;118.30;53.07;;;0.20;99.90;;;;;;4841733;28;20615;-77
2020/12/22 03:41:50;;;;;;;131.63;54.80;;;0.30;99.90;;;;;;4848781;28;20683;-76
2020/12/22 03:44:12;;;;;;;121.07;54.17;;;0.20;99.90;;;;;;4845048;28;20680;-77
2020/12/22 03:46:36;;;;;;;104.23;50.47;;;0.20;99.90;;;;;;4849412;28;20603;-77
2020/12/22 03:48:58;;;;;;;100.47;51.17;;;0.10;99.90;;;;;;4848558;28;20686;-76
2020/12/22 03:51:23;;;;;;;93.60;48.27;;;0.20;99.90;;;;;;4844433;28;20616;-77
2020/12/22 03:53:48;;;;;;;85.73;45.43;;;0.20;99.90;;;;;;4847950;28;21173;-76
2020/12/22 03:56:11;;;;;;;147.80;69.33;;;0.30;99.90;;;;;;4848268;28;21220;-76
2020/12/22 03:58:33;;;;;;;120.43;61.17;;;0.30;99.90;;;;;;4850716;28;20631;-77
2020/12/22 04:00:55;;;;;;;152.40;76.27;;;0.60;99.90;;;;;;4847508;28;20604;-77
2020/12/22 04:03:18;;;;;;;118.47;61.70;;;0.40;99.90;;;;;;4849457;28;20642;-76
2020/12/22 04:05:40;;;;;;;103.87;52.87;;;0.50;99.90;;;;;;4843559;28;20214;-77
2020/12/22 04:08:02;;;;;;;89.87;46.50;;;0.40;99.90;;;;;;4856957;28;20612;-76
2020/12/22 04:10:24;;;;;;;87.13;44.27;;;0.40;99.90;;;;;;4855272;28;20668;-76
2020/12/22 04:12:46;;;;;;;84.70;45.13;;;0.40;99.90;;;;;;4845386;28;20655;-77
2020/12/22 04:15:08;;;;;;;81.30;44.57;;;0.40;99.90;;;;;;4849149;28;20615;-77
2020/12/22 04:17:30;;;;;;;81.37;43.67;;;0.50;99.90;;;;;;4847204;28;20611;-76
2020/12/22 04:19:53;;;;;;;71.23;41.53;;;0.50;99.90;;;;;;4855746;28;20951;-77
2020/12/22 04:22:17;;;;;;;79.73;43.43;;;0.50;99.90;;;;;;4848843;28;20700;-77
2020/12/22 04:24:39;;;;;;;77.70;43.87;;;0.50;99.90;;;;;;4845270;28;20622;-77
2020/12/22 04:27:01;;;;;;;78.53;42.60;;;0.60;99.90;;;;;;4848992;28;20616;-77
2020/12/22 04:29:23;;;;;;;79.40;43.60;;;0.50;99.90;;;;;;4834566;28;20238;-77
2020/12/22 04:31:48;;;;;;;75.43;43.00;;;0.80;99.90;;;;;;4855496;28;21020;-77
2020/12/22 04:34:10;;;;;;;79.43;43.30;;;0.60;99.90;;;;;;4846908;28;20649;-77
2020/12/22 04:36:33;;;;;;;84.97;42.77;;;0.60;99.90;;;;;;4842261;28;20619;-77
2020/12/22 04:38:55;;;;;;;74.67;41.23;;;0.50;99.90;;;;;;4846165;28;20607;-77
2020/12/22 04:41:19;;;;;;;79.87;43.60;;;0.40;99.90;;;;;;4842607;28;20616;-77
2020/12/22 04:43:42;;;;;;;83.03;43.70;;;0.60;99.90;;;;;;4845889;28;20690;-77
2020/12/22 04:46:05;;;;;;;77.20;42.27;;;0.40;99.90;;;;;;4851063;28;20212;-77
2020/12/22 04:48:33;;;;;;;81.20;44.60;;;0.30;99.90;;;;;;4847716;28;21045;-77
2020/12/22 04:50:55;;;;;;;85.97;46.23;;;0.30;99.90;;;;;;4845720;28;20707;-77
2020/12/22 04:53:18;;;;;;;92.53;48.07;;;0.30;99.90;;;;;;4850277;28;20332;-77
2020/12/22 04:55:40;;;;;;;91.30;47.13;;;0.40;99.90;;;;;;4846985;28;20985;-76
2020/12/22 04:58:02;;;;;;;87.50;47.67;;;0.40;99.90;;;;;;4845833;28;20623;-76
2020/12/22 05:00:27;;;;;;;86.63;45.70;;;0.40;99.90;;;;;;4841988;28;20190;-77
2020/12/22 05:02:51;;;;;;;87.47;46.37;;;0.40;99.90;;;;;;4846619;28;20631;-77
2020/12/22 05:05:13;;;;;;;87.83;47.80;;;0.50;99.90;;;;;;4846819;28;20677;-77
2020/12/22 05:07:35;;;;;;;87.93;47.77;;;0.50;99.90;;;;;;4844676;28;20186;-77
2020/12/22 05:10:05;;;;;;;86.73;46.83;;;0.50;99.90;;;;;;4848245;28;21201;-76
2020/12/22 05:12:27;;;;;;;97.03;49.77;;;0.50;99.90;;;;;;4846210;28;20632;-77
2020/12/22 05:14:49;;;;;;;97.23;49.10;;;0.60;99.90;;;;;;4849476;28;21037;-77
2020/12/22 05:17:14;;;;;;;92.50;49.10;;;1.30;99.90;;;;;;4880080;28;20604;-76
2020/12/22 05:19:39;;;;;;;93.43;48.87;;;0.60;99.90;;;;;;4849046;28;20605;-77
2020/12/22 05:22:02;;;;;;;96.90;49.67;;;0.60;99.90;;;;;;4845066;28;20643;-77
2020/12/22 05:24:25;;;;;;;100.63;50.73;;;0.50;99.90;;;;;;4847009;28;20674;-77
2020/12/22 05:26:48;;;;;;;90.40;48.07;;;0.60;99.90;;;;;;4847752;28;20647;-77
2020/12/22 05:29:11;;;;;;;98.10;48.87;;;0.60;99.90;;;;;;4851867;28;20190;-76
2020/12/22 05:31:40;;;;;;;94.77;50.60;;;0.60;99.90;;;;;;4849891;28;20643;-77
2020/12/22 05:34:08;;;;;;;96.67;51.13;;;0.60;99.90;;;;;;4843348;28;20609;-77
2020/12/22 05:36:31;;;;;;;93.47;49.30;;;0.60;99.90;;;;;;4839021;28;20187;-76
2020/12/22 05:38:53;;;;;;;90.43;48.67;;;0.60;99.90;;;;;;4849046;28;21176;-77
2020/12/22 05:41:19;;;;;;;84.93;46.33;;;0.50;99.90;;;;;;4847092;28;20619;-77
2020/12/22 05:43:43;;;;;;;93.70;50.50;;;1.00;99.90;;;;;;4850113;28;20616;-77
2020/12/22 05:46:05;;;;;;;90.53;48.77;;;0.50;99.90;;;;;;4847139;28;20608;-77
2020/12/22 05:48:27;;;;;;;92.03;49.43;;;0.50;99.90;;;;;;4849985;28;20620;-77
2020/12/22 05:50:51;;;;;;;99.00;52.07;;;0.40;99.90;;;;;;4843742;28;20656;-77
2020/12/22 05:53:15;;;;;;;97.27;51.63;;;0.50;99.90;;;;;;4839071;28;20245;-77
2020/12/22 05:55:37;;;;;;;98.33;52.20;;;0.50;99.90;;;;;;4840101;28;20632;-77
2020/12/22 05:58:09;;;;;;;88.73;49.60;;;0.50;99.90;;;;;;4851754;28;20615;-77
2020/12/22 06:00:32;;;;;;;91.27;51.33;;;0.50;99.90;;;;;;4848003;28;20643;-77
2020/12/22 06:03:01;;;;;;;84.20;47.90;;;0.60;99.90;;;;;;4846847;28;20594;-77
2020/12/22 06:05:24;;;;;;;76.97;43.57;;;0.60;99.90;;;;;;4831424;28;20633;-77
2020/12/22 06:07:46;;;;;;;75.73;42.13;;;0.60;99.90;;;;;;4844461;28;20205;-77
2020/12/22 06:10:09;;;;;;;67.03;40.17;;;0.60;99.90;;;;;;4845440;28;20655;-77
2020/12/22 06:12:39;;;;;;;71.20;40.27;;;0.80;99.90;;;;;;4845100;28;21211;-77
2020/12/22 06:15:01;;;;;;;64.80;39.37;;;0.60;99.90;;;;;;4842969;28;20612;-77
2020/12/22 06:17:23;;;;;;;66.80;38.63;;;0.70;99.90;;;;;;4847325;28;20616;-77
2020/12/22 06:19:46;;;;;;;69.17;40.00;;;0.70;99.90;;;;;;4844708;28;20608;-77
2020/12/22 06:22:11;;;;;;;63.97;38.67;;;0.70;99.90;;;;;;4846789;28;20693;-77
2020/12/22 06:24:33;;;;;;;60.43;36.03;;;0.70;99.90;;;;;;4845339;28;20670;-77
2020/12/22 06:27:03;;;;;;;62.23;38.37;;;0.80;99.90;;;;;;4845280;28;20665;-77
2020/12/22 06:29:26;;;;;;;63.47;37.77;;;0.80;99.90;;;;;;4846710;28;20195;-77
2020/12/22 06:31:48;;;;;;;60.00;36.90;;;0.80;99.90;;;;;;4841372;28;20235;-77
2020/12/22 06:34:24;;;;;;;55.97;35.83;;;0.80;99.90;;;;;;4845301;28;20190;-77
2020/12/22 06:36:57;;;;;;;60.77;36.07;;;0.80;99.90;;;;;;4844523;28;20178;-77
2020/12/22 06:39:39;;;;;;;56.80;34.13;;;0.90;99.90;;;;;;4846873;28;20633;-77
2020/12/22 06:42:01;;;;;;;54.50;34.30;;;0.90;99.90;;;;;;4846195;28;20210;-77
2020/12/22 06:44:25;;;;;;;59.13;36.10;;;1.20;99.90;;;;;;4845508;28;20652;-77
2020/12/22 06:46:51;;;;;;;56.20;35.63;;;1.00;99.40;;;;;;4844423;28;20182;-77
2020/12/22 06:49:14;;;;;;;65.33;38.27;;;1.00;99.10;;;;;;4841520;28;20644;-77
2020/12/22 06:51:37;;;;;;;62.57;38.13;;;1.00;98.90;;;;;;4845123;28;20265;-77
2020/12/22 06:54:00;;;;;;;52.50;33.57;;;1.10;97.60;;;;;;4845247;28;20242;-77
2020/12/22 06:56:42;;;;;;;62.10;36.97;;;1.10;97.00;;;;;;4837098;28;20253;-77
2020/12/22 06:59:04;;;;;;;52.17;31.80;;;1.10;96.30;;;;;;4851671;28;20246;-77
2020/12/22 07:01:33;;;;;;;50.67;31.80;;;1.20;96.00;;;;;;4848955;28;20669;-77
2020/12/22 07:04:15;;;;;;;48.13;31.10;;;1.20;96.30;;;;;;4850590;28;20676;-77
2020/12/22 07:06:56;;;;;;;53.23;34.20;;;1.20;96.80;;;;;;4842924;28;20187;-77
2020/12/22 07:09:20;;;;;;;52.27;32.33;;;1.30;97.10;;;;;;4849975;28;20602;-77
2020/12/22 07:11:42;;;;;;;51.67;32.47;;;1.30;96.50;;;;;;4850062;28;20728;-76
2020/12/22 07:14:06;;;;;;;58.80;33.33;;;1.30;96.10;;;;;;4844641;28;21239;-76
2020/12/22 07:16:28;;;;;;;52.17;33.57;;;1.40;96.00;;;;;;4854662;28;20715;-77
2020/12/22 07:18:54;;;;;;;56.80;34.37;;;1.40;95.00;;;;;;4841449;28;20183;-77
2020/12/22 07:21:16;;;;;;;54.67;35.73;;;1.40;93.60;;;;;;4842940;28;20579;-77
2020/12/22 07:23:41;;;;;;;57.27;34.97;;;1.40;92.60;;;;;;4852292;28;20257;-77
2020/12/22 07:26:04;;;;;;;53.30;35.10;;;1.40;92.30;;;;;;4850986;28;20689;-77
2020/12/22 07:28:26;;;;;;;56.10;34.87;;;1.50;92.70;;;;;;4872692;28;20228;-77
2020/12/22 07:30:49;;;;;;;51.83;32.43;;;1.50;93.00;;;;;;4846957;28;20647;-77
2020/12/22 07:33:11;;;;;;;51.10;33.73;;;1.50;91.90;;;;;;4851505;28;20186;-77
2020/12/22 07:35:33;;;;;;;47.70;32.53;;;1.60;90.90;;;;;;4852172;28;20203;-77
2020/12/22 07:38:03;;;;;;;57.47;35.10;;;1.60;91.20;;;;;;4835382;28;20623;-77
2020/12/22 07:40:27;;;;;;;53.00;34.37;;;1.70;91.80;;;;;;4840786;28;20190;-78
2020/12/22 07:42:49;;;;;;;55.37;33.77;;;1.70;90.80;;;;;;4846057;28;20191;-78
2020/12/22 07:45:11;;;;;;;52.00;33.37;;;1.70;89.20;;;;;;4852702;28;20981;-76
2020/12/22 07:47:34;;;;;;;49.43;33.20;;;1.80;81.50;;;;;;4844449;28;20236;-78
2020/12/22 07:49:56;;;;;;;52.43;32.50;;;1.80;80.00;;;;;;4847585;28;20280;-75
2020/12/22 07:52:19;;;;;;;50.97;34.10;;;1.90;78.60;;;;;;4849716;28;20925;-76
2020/12/22 07:54:42;;;;;;;51.83;34.87;;;1.90;75.30;;;;;;4844714;28;20680;-74
2020/12/22 07:57:04;;;;;;;49.37;33.90;;;1.90;70.30;;;;;;4823686;28;20191;-75
2020/12/22 07:59:27;;;;;;;52.23;33.37;;;1.90;71.10;;;;;;4843703;28;20190;-76
2020/12/22 08:01:51;;;;;;;52.83;32.93;;;1.90;71.00;;;;;;4844288;28;20179;-77
2020/12/22 08:04:17;;;;;;;44.47;30.07;;;1.90;71.20;;;;;;4846948;28;20191;-76
2020/12/22 08:06:40;;;;;;;45.37;30.73;;;1.90;72.90;;;;;;4840656;28;20229;-76
2020/12/22 08:09:02;;;;;;;48.43;33.07;;;2.00;73.40;;;;;;4838230;28;20195;-76
2020/12/22 08:11:26;;;;;;;49.20;32.93;;;2.00;73.50;;;;;;4845997;28;20626;-75
2020/12/22 08:13:50;;;;;;;51.07;33.17;;;2.00;73.90;;;;;;4846085;28;20679;-75
2020/12/22 08:16:13;;;;;;;53.63;32.47;;;2.00;73.20;;;;;;4843190;28;20975;-76
2020/12/22 08:18:35;;;;;;;47.93;31.63;;;2.10;74.10;;;;;;4848562;28;20790;-76
2020/12/22 08:21:00;;;;;;;47.90;32.70;;;2.10;73.50;;;;;;4852576;28;20291;-75
2020/12/22 08:23:24;;;;;;;46.13;30.93;;;2.10;71.20;;;;;;4851501;28;20214;-75
2020/12/22 08:25:49;;;;;;;43.83;30.83;;;2.10;71.30;;;;;;4857065;28;20653;-75
2020/12/22 08:28:21;;;;;;;48.53;30.47;;;2.10;69.80;;;;;;4840973;28;20187;-75
2020/12/22 08:30:43;;;;;;;49.13;32.20;;;2.10;62.90;;;;;;4840732;28;20615;-76
2020/12/22 08:33:07;;;;;;;53.37;35.87;;;2.10;63.80;;;;;;4843911;28;20193;-76
2020/12/22 08:35:29;;;;;;;49.63;33.00;;;2.20;66.80;;;;;;4848372;28;20191;-76
2020/12/22 08:37:51;;;;;;;44.33;30.33;;;2.20;68.00;;;;;;4848886;28;20182;-76
2020/12/22 08:40:26;;;;;;;40.40;28.57;;;2.30;68.90;;;;;;4846578;28;20270;-76
2020/12/22 08:42:48;;;;;;;46.30;29.93;;;2.40;68.90;;;;;;4841029;28;20640;-76
2020/12/22 08:45:12;;;;;;;42.40;27.30;;;2.40;68.90;;;;;;4838516;28;20236;-76
2020/12/22 08:47:34;;;;;;;42.70;27.80;;;2.90;69.10;;;;;;4845310;28;20248;-76
2020/12/22 08:50:08;;;;;;;39.80;27.07;;;2.60;65.50;;;;;;4842892;28;20288;-76
2020/12/22 08:52:32;;;;;;;38.30;26.67;;;2.70;63.50;;;;;;4842575;28;20211;-76
2020/12/22 08:55:01;;;;;;;38.53;26.43;;;2.70;56.70;;;;;;4841559;28;20190;-76
2020/12/22 08:57:23;;;;;;;37.70;25.17;;;3.40;53.90;;;;;;4836953;28;20190;-76
2020/12/22 08:59:46;;;;;;;39.47;25.13;;;2.90;50.00;;;;;;4854965;28;20711;-76
2020/12/22 09:02:24;;;;;;;35.17;25.03;;;2.90;49.70;;;;;;4836928;28;20683;-76
2020/12/22 09:04:46;;;;;;;34.53;24.67;;;3.00;48.30;;;;;;4838424;28;20237;-75
2020/12/22 09:07:12;;;;;;;33.33;23.83;;;3.10;47.70;;;;;;4848397;28;20186;-75
2020/12/22 09:09:34;;;;;;;41.33;28.37;;;3.20;46.40;;;;;;4844224;28;20187;-75
2020/12/22 09:12:06;;;;;;;37.83;26.80;;;3.30;43.30;;;;;;4838621;28;20210;-75
2020/12/22 09:14:38;;;;;;;36.47;25.60;;;3.50;41.80;;;;;;4845565;28;20236;-75
2020/12/22 09:17:00;;;;;;;32.87;23.67;;;3.70;38.80;;;;;;4838389;28;20194;-76
2020/12/22 09:19:28;;;;;;;35.10;24.40;;;4.20;38.00;;;;;;4849162;28;20491;-75
2020/12/22 09:21:58;;;;;;;36.73;25.53;;;3.50;11.80;;;;;;4849321;28;20236;-75
2020/12/22 09:24:20;;;;;;;35.83;24.53;;;3.60;12.10;;;;;;4841427;28;20186;-76
2020/12/22 09:26:56;;;;;;;38.00;24.90;;;3.60;5.30;;;;;;4838538;28;20194;-76
2020/12/22 09:29:18;;;;;;;36.73;25.03;;;3.50;8.70;;;;;;4840465;28;20237;-75
2020/12/22 09:31:40;;;;;;;37.83;26.07;;;3.50;11.50;;;;;;4848409;28;20214;-75
2020/12/22 09:34:02;;;;;;;34.53;25.17;;;3.60;15.30;;;;;;4836823;28;20240;-75
2020/12/22 09:36:25;;;;;;;36.07;25.83;;;3.50;15.90;;;;;;4838750;28;20190;-75
2020/12/22 09:38:47;;;;;;;38.50;26.13;;;3.50;18.80;;;;;;4842382;28;20217;-76
2020/12/22 09:41:09;;;;;;;36.70;26.60;;;3.50;21.70;;;;;;4843669;28;20256;-75
2020/12/22 09:43:31;;;;;;;38.27;25.77;;;3.50;22.80;;;;;;4847857;28;20236;-75
2020/12/22 09:45:55;;;;;;;34.47;24.23;;;3.50;24.40;;;;;;4840069;28;20197;-75
2020/12/22 09:48:17;;;;;;;34.33;25.60;;;3.50;21.20;;;;;;4843929;28;20236;-75
2020/12/22 09:50:39;;;;;;;34.87;24.73;;;3.50;21.80;;;;;;4845524;28;20272;-75
2020/12/22 09:53:02;;;;;;;34.63;25.10;;;3.60;23.40;;;;;;4840906;28;20226;-75
2020/12/22 09:55:24;;;;;;;33.17;24.87;;;3.60;27.30;;;;;;4845277;28;20256;-75
2020/12/22 09:57:47;;;;;;;32.00;23.20;;;3.60;29.00;;;;;;4846530;28;20713;-75
2020/12/22 10:00:09;;;;;;;33.30;24.50;;;3.60;30.50;;;;;;4846304;28;20190;-76
2020/12/22 10:02:31;;;;;;;45.30;33.40;;;3.70;32.20;;;;;;4839451;28;20178;-75
2020/12/22 10:04:53;;;;;;;49.67;36.13;;;4.30;33.70;;;;;;4837498;28;20610;-75
2020/12/22 10:07:15;;;;;;;52.73;37.93;;;4.70;33.60;;;;;;4850564;28;20186;-76
2020/12/22 10:09:38;;;;;;;45.60;31.67;;;3.70;33.00;;;;;;4849165;28;20696;-75
2020/12/22 10:12:00;;;;;;;38.47;29.93;;;3.70;33.30;;;;;;4855889;28;20244;-75
2020/12/22 10:14:22;;;;;;;44.27;31.80;;;5.40;34.60;;;;;;4855701;28;20182;-76
2020/12/22 10:16:44;;;;;;;41.80;32.20;;;3.70;34.90;;;;;;4856601;28;20269;-76
2020/12/22 10:19:06;;;;;;;45.57;33.87;;;3.80;32.70;;;;;;4856577;28;20209;-76
2020/12/22 10:21:28;;;;;;;47.30;34.33;;;4.40;32.30;;;;;;4855569;28;20589;-75
2020/12/22 10:23:51;;;;;;;47.60;35.03;;;3.90;32.60;;;;;;4855083;28;20247;-75
2020/12/22 10:26:16;;;;;;;50.57;37.37;;;4.00;30.20;;;;;;4856283;28;20190;-75
2020/12/22 10:28:39;;;;;;;68.73;47.87;;;4.20;30.60;;;;;;4856490;28;20190;-76
2020/12/22 10:31:02;;;;;;;118.63;83.63;;;4.00;26.70;;;;;;4855805;28;20193;-76
2020/12/22 10:33:24;;;;;;;64.97;47.33;;;4.00;27.30;;;;;;4850091;28;20727;-75
2020/12/22 10:35:46;;;;;;;52.47;35.73;;;4.00;20.80;;;;;;4845843;28;20239;-76
2020/12/22 10:38:08;;;;;;;52.00;35.47;;;4.80;19.20;;;;;;4848455;28;20245;-75
2020/12/22 10:40:30;;;;;;;46.30;32.77;;;4.00;21.50;;;;;;4849618;28;20651;-75
2020/12/22 10:42:53;;;;;;;50.27;34.20;;;4.10;25.50;;;;;;4841846;28;20601;-76
2020/12/22 10:45:17;;;;;;;51.77;35.07;;;4.00;28.60;;;;;;4855283;28;20186;-75
2020/12/22 10:47:39;;;;;;;45.50;32.60;;;4.00;34.60;;;;;;4853008;28;20201;-76
2020/12/22 10:50:01;;;;;;;47.77;32.50;;;3.90;34.10;;;;;;4847311;28;20615;-75
2020/12/22 10:52:23;;;;;;;53.30;35.60;;;4.00;31.50;;;;;;4847107;28;20621;-75
2020/12/22 10:54:45;;;;;;;51.97;34.10;;;4.00;33.10;;;;;;4845860;28;20186;-76
2020/12/22 10:57:07;;;;;;;50.37;33.90;;;4.00;35.30;;;;;;4848704;28;20194;-75
2020/12/22 10:59:30;;;;;;;44.60;33.17;;;4.10;38.70;;;;;;4843281;28;20600;-75
2020/12/22 11:01:56;;;;;;;45.63;32.73;;;4.10;41.20;;;;;;4845499;28;20187;-75
2020/12/22 11:04:18;;;;;;;41.03;29.73;;;4.40;44.40;;;;;;4844698;28;20707;-76
2020/12/22 11:06:48;;;;;;;40.83;29.63;;;4.20;48.70;;;;;;4845667;28;20194;-76
2020/12/22 11:09:10;;;;;;;39.23;29.40;;;4.30;53.10;;;;;;4842860;28;20550;-75
2020/12/22 11:11:32;;;;;;;34.73;26.03;;;4.80;57.20;;;;;;4843777;28;20206;-76
2020/12/22 11:13:54;;;;;;;35.27;25.03;;;4.50;59.60;;;;;;4840304;28;20237;-75
2020/12/22 11:16:23;;;;;;;28.03;20.67;;;4.50;63.20;;;;;;4848349;28;20190;-76
2020/12/22 11:18:45;;;;;;;27.43;20.13;;;4.80;64.60;;;;;;4844462;28;20637;-76
2020/12/22 11:21:11;;;;;;;24.57;18.80;;;4.70;67.10;;;;;;4849379;28;20201;-75
2020/12/22 11:23:33;;;;;;;24.87;18.03;;;5.00;69.20;;;;;;4845427;28;20218;-76
2020/12/22 11:25:55;;;;;;;22.10;17.43;;;4.90;69.60;;;;;;4850139;28;20187;-75
2020/12/22 11:28:17;;;;;;;16.73;14.07;;;5.00;71.20;;;;;;4847833;28;20186;-75
2020/12/22 11:30:39;;;;;;;14.67;11.73;;;5.30;77.60;;;;;;4846394;28;20236;-75
2020/12/22 11:33:02;;;;;;;12.20;9.70;;;5.50;78.50;;;;;;4847819;28;20218;-75
2020/12/22 11:35:24;;;;;;;12.07;9.30;;;5.60;78.80;;;;;;4852685;28;20256;-75
2020/12/22 11:37:47;;;;;;;15.43;11.27;;;5.60;76.70;;;;;;4848607;28;20194;-75
2020/12/22 11:40:09;;;;;;;15.50;11.77;;;5.50;77.80;;;;;;4845862;28;20524;-75
2020/12/22 11:42:31;;;;;;;15.97;11.90;;;5.40;73.80;;;;;;4845888;28;20190;-75
2020/12/22 11:44:53;;;;;;;13.27;10.43;;;6.40;73.50;;;;;;4844449;28;20195;-76
2020/12/22 11:47:16;;;;;;;10.97;8.80;;;5.50;72.90;;;;;;4853481;28;20186;-76
2020/12/22 11:49:40;;;;;;;7.37;6.47;;;5.60;75.70;;;;;;4846103;28;20281;-75
2020/12/22 11:52:02;;;;;;;7.17;5.87;;;6.20;77.70;;;;;;4847451;28;20621;-75
2020/12/22 11:54:25;;;;;;;6.93;5.67;;;5.70;78.60;;;;;;4848161;28;20195;-76
2020/12/22 11:56:47;;;;;;;7.00;5.70;;;5.80;74.20;;;;;;4842785;28;20241;-75
2020/12/22 11:59:09;;;;;;;6.33;5.17;;;5.90;73.00;;;;;;4842663;28;20195;-77
2020/12/22 12:01:31;;;;;;;5.87;4.93;;;6.00;66.50;;;;;;4843718;28;20244;-76
2020/12/22 12:03:53;;;;;;;6.87;6.17;;;6.10;59.40;;;;;;4841969;28;20241;-77
2020/12/22 12:06:19;;;;;;;7.67;6.13;;;6.20;54.90;;;;;;4838461;28;20264;-75
2020/12/22 12:08:41;;;;;;;6.83;6.00;;;6.20;50.40;;;;;;4838799;28;20241;-76
2020/12/22 12:11:03;;;;;;;5.87;4.67;;;6.40;49.20;;;;;;4854993;28;20198;-75
2020/12/22 12:13:25;;;;;;;6.40;4.90;;;6.30;45.80;;;;;;4858019;28;20259;-75